Time;durP1;ratioP1;P1;durP2;ratioP2;P2;SDS_P1;SDS_P2;PMS_P1;PMS_P2;Temp;Humidity;BMP_temperature;BMP_pressure;BME280_temperature;BME280_humidity;BME280_pressure;Samples;Min_cycle;Max_cycle;Signal;HPM_P1;HPM_P2
2022/08/29 00:00:13;;;;;;;14.20;4.30;;;;;;;24.33;58.02;100399.94;5069508;28;20642;-65
2022/08/29 00:02:38;;;;;;;10.60;4.70;;;;;;;24.46;57.32;100398.25;5055856;28;20188;-64
2022/08/29 00:05:05;;;;;;;7.90;4.00;;;;;;;24.31;57.48;100396.66;5063133;28;20478;-64
2022/08/29 00:07:30;;;;;;;9.00;4.97;;;;;;;24.41;57.14;100392.91;5068238;28;20664;-64
2022/08/29 00:09:56;;;;;;;10.50;4.23;;;;;;;24.41;56.98;100395.78;5073769;28;20421;-64
2022/08/29 00:12:21;;;;;;;7.00;4.40;;;;;;;24.41;55.94;100401.56;5072995;28;20252;-63
2022/08/29 00:14:47;;;;;;;12.70;4.43;;;;;;;24.35;56.59;100391.69;5073312;28;20532;-64
2022/08/29 00:17:12;;;;;;;10.60;4.70;;;;;;;24.40;56.21;100394.16;5072846;28;20557;-64
2022/08/29 00:19:37;;;;;;;8.67;4.17;;;;;;;24.37;55.97;100399.91;5073072;28;20545;-65
2022/08/29 00:22:03;;;;;;;7.47;4.53;;;;;;;24.41;55.53;100400.72;5073180;28;20178;-65
2022/08/29 00:24:28;;;;;;;7.70;4.40;;;;;;;24.29;55.70;100396.22;5073159;28;20179;-64
2022/08/29 00:26:54;;;;;;;6.70;3.87;;;;;;;24.39;55.51;100398.25;5073022;28;20182;-64
2022/08/29 00:29:19;;;;;;;10.77;4.27;;;;;;;24.22;54.65;100392.53;5071207;28;20179;-65
2022/08/29 00:31:45;;;;;;;9.50;3.50;;;;;;;24.27;55.19;100395.84;5071738;28;20175;-64
2022/08/29 00:34:10;;;;;;;9.43;3.60;;;;;;;24.23;55.13;100389.25;5073010;28;20233;-64
2022/08/29 00:36:36;;;;;;;7.70;3.33;;;;;;;24.32;54.69;100386.75;5073048;28;20171;-65
2022/08/29 00:39:03;;;;;;;8.20;4.00;;;;;;;24.23;54.79;100395.03;5072703;28;20179;-64
2022/08/29 00:41:28;;;;;;;8.87;4.43;;;;;;;24.29;55.16;100395.44;5072646;28;20630;-64
2022/08/29 00:43:54;;;;;;;8.27;3.97;;;;;;;24.23;54.71;100394.22;5072285;28;20492;-64
2022/08/29 00:46:30;;;;;;;8.70;4.70;;;;;;;24.21;53.74;100400.41;5072733;28;20182;-65
2022/08/29 00:48:57;;;;;;;7.87;4.10;;;;;;;24.30;54.22;100397.91;5071083;28;20211;-63
2022/08/29 00:51:23;;;;;;;11.87;4.70;;;;;;;24.33;54.28;100402.00;5072221;28;20414;-64
2022/08/29 00:53:51;;;;;;;6.00;4.03;;;;;;;24.35;53.81;100406.13;5070524;28;20990;-64
2022/08/29 00:56:17;;;;;;;10.53;4.17;;;;;;;24.37;54.01;100411.47;5053013;28;20249;-65
2022/08/29 00:59:19;;;;;;;9.60;4.13;;;;;;;24.36;53.67;100415.59;5070361;28;20904;-64
2022/08/29 01:01:44;;;;;;;8.37;3.90;;;;;;;24.38;53.88;100413.13;5070162;28;20190;-64
2022/08/29 01:04:10;;;;;;;8.20;4.13;;;;;;;24.39;53.81;100414.75;5052283;28;20480;-63
2022/08/29 01:06:36;;;;;;;7.93;3.73;;;;;;;24.38;53.73;100413.94;5065346;28;20194;-64
2022/08/29 01:09:01;;;;;;;7.07;4.00;;;;;;;24.37;53.80;100418.06;5070471;28;20179;-64
2022/08/29 01:14:11;;;;;;;11.53;4.20;;;;;;;24.37;53.94;100423.84;5056616;28;20886;-64
2022/08/29 01:16:37;;;;;;;8.67;3.70;;;;;;;24.36;53.50;100421.34;5053326;28;20417;-64
2022/08/29 01:19:20;;;;;;;7.40;3.70;;;;;;;24.35;53.45;100419.72;5069839;28;20189;-63
2022/08/29 01:21:52;;;;;;;7.90;3.70;;;;;;;24.33;53.29;100420.13;5070434;28;20178;-64
2022/08/29 01:24:52;;;;;;;8.60;4.33;;;;;;;24.31;53.27;100422.63;5070673;28;20417;-64
2022/08/29 01:27:19;;;;;;;5.60;3.43;;;;;;;24.32;53.28;100426.31;5070732;28;20421;-64
2022/08/29 01:29:45;;;;;;;8.70;3.67;;;;;;;24.30;53.30;100432.53;5054036;28;20575;-64
2022/08/29 01:32:11;;;;;;;10.10;4.00;;;;;;;24.32;53.36;100424.25;5071727;28;20440;-65
2022/08/29 01:34:37;;;;;;;5.87;3.73;;;;;;;24.32;53.33;100426.31;5066574;28;20207;-64
2022/08/29 01:37:03;;;;;;;12.80;3.83;;;;;;;24.30;53.22;100420.97;5051691;28;20438;-64
2022/08/29 01:39:31;;;;;;;8.03;3.90;;;;;;;24.29;52.78;100416.44;5051736;28;20258;-64
2022/08/29 01:41:58;;;;;;;9.03;3.77;;;;;;;24.27;52.82;100413.16;5051702;28;20884;-64
2022/08/29 01:44:25;;;;;;;7.50;3.70;;;;;;;24.27;52.83;100418.09;5050374;28;20426;-63
2022/08/29 01:46:52;;;;;;;8.53;3.80;;;;;;;24.27;52.88;100427.56;5051445;28;20426;-63
2022/08/29 01:49:18;;;;;;;6.17;3.33;;;;;;;24.29;53.13;100421.41;5071147;28;20942;-64
2022/08/29 01:51:43;;;;;;;8.53;3.23;;;;;;;24.29;52.80;100427.97;5071410;28;20417;-64
2022/08/29 01:54:09;;;;;;;7.87;4.03;;;;;;;24.30;52.99;100429.66;5071174;28;20210;-64
2022/08/29 01:56:37;;;;;;;9.33;3.47;;;;;;;24.29;52.69;100425.09;5070701;28;20281;-63
2022/08/29 01:59:04;;;;;;;7.43;3.53;;;;;;;24.27;52.27;100427.56;5071238;28;20975;-64
2022/08/29 02:01:34;;;;;;;14.13;4.30;;;;;;;24.28;52.98;100419.75;5071253;28;20425;-64
2022/08/29 02:04:00;;;;;;;8.33;3.80;;;;;;;24.28;52.42;100428.41;5034849;28;20874;-64
2022/08/29 02:06:26;;;;;;;6.87;3.37;;;;;;;24.29;52.47;100427.97;5051252;28;20446;-64
2022/08/29 02:08:51;;;;;;;7.90;4.10;;;;;;;24.28;52.35;100435.00;5064873;28;20259;-64
2022/08/29 02:11:16;;;;;;;7.17;3.60;;;;;;;24.29;52.47;100432.94;5070079;28;20179;-64
2022/08/29 02:13:45;;;;;;;7.30;3.50;;;;;;;24.27;52.68;100429.63;5051565;28;20190;-64
2022/08/29 02:16:11;;;;;;;7.87;3.77;;;;;;;24.27;52.31;100430.47;5070590;28;20203;-64
2022/08/29 02:18:36;;;;;;;8.40;4.00;;;;;;;24.25;52.30;100432.13;5069676;28;20421;-64
2022/08/29 02:21:02;;;;;;;7.43;3.83;;;;;;;24.26;52.07;100436.66;5070744;28;20782;-63
2022/08/29 02:23:28;;;;;;;8.00;4.10;;;;;;;24.25;52.29;100426.34;5069173;28;20228;-64
2022/08/29 02:25:53;;;;;;;8.90;3.90;;;;;;;24.22;51.95;100436.66;5071306;28;20311;-64
2022/08/29 02:28:20;;;;;;;6.37;3.90;;;;;;;24.22;52.30;100436.66;5071071;28;20828;-63
2022/08/29 02:30:47;;;;;;;7.10;3.67;;;;;;;24.20;51.92;100436.28;5071073;28;20649;-64
2022/08/29 02:33:14;;;;;;;9.30;3.90;;;;;;;24.21;52.05;100437.91;5058867;28;20442;-63
2022/08/29 02:35:39;;;;;;;9.27;3.77;;;;;;;24.19;51.96;100434.59;5050679;28;20549;-63
2022/08/29 02:38:05;;;;;;;7.83;3.43;;;;;;;24.19;51.86;100443.25;5063690;28;20470;-62
2022/08/29 02:40:31;;;;;;;6.67;3.43;;;;;;;24.20;52.38;100439.16;5069233;28;20657;-64
2022/08/29 02:42:56;;;;;;;7.87;3.43;;;;;;;24.20;51.46;100435.44;5070356;28;20258;-64
2022/08/29 02:45:22;;;;;;;6.10;3.00;;;;;;;24.18;51.63;100435.84;5070398;28;20424;-64
2022/08/29 02:47:47;;;;;;;7.97;3.80;;;;;;;24.19;51.91;100434.59;5070816;28;20187;-64
2022/08/29 02:50:13;;;;;;;8.13;3.23;;;;;;;24.20;51.67;100438.31;5070684;28;20244;-64
2022/08/29 02:52:39;;;;;;;10.70;3.60;;;;;;;24.18;51.77;100438.72;5070607;28;20335;-64
2022/08/29 02:55:06;;;;;;;7.30;3.27;;;;;;;24.15;51.63;100433.81;5069575;28;20199;-63
2022/08/29 02:57:31;;;;;;;8.03;3.30;;;;;;;24.15;51.77;100435.84;5070033;28;20420;-63
2022/08/29 02:59:56;;;;;;;8.40;3.80;;;;;;;24.14;51.60;100431.34;5068758;28;20433;-64
2022/08/29 03:02:22;;;;;;;7.47;3.53;;;;;;;24.12;51.35;100428.03;5064960;28;20183;-63
2022/08/29 03:04:47;;;;;;;9.93;3.50;;;;;;;24.07;51.19;100431.34;5050282;28;20222;-64
2022/08/29 03:07:13;;;;;;;7.07;3.40;;;;;;;24.01;51.51;100430.94;5050392;28;20168;-63
2022/08/29 03:09:38;;;;;;;5.63;3.17;;;;;;;23.98;51.24;100434.66;5048638;28;20561;-64
2022/08/29 03:12:04;;;;;;;4.93;2.70;;;;;;;23.98;51.29;100431.75;5052730;28;20219;-64
2022/08/29 03:14:29;;;;;;;6.40;2.90;;;;;;;23.99;50.78;100430.53;5070356;28;20240;-64
2022/08/29 03:16:55;;;;;;;6.10;3.17;;;;;;;24.01;51.16;100430.94;5070462;28;20179;-63
2022/08/29 03:19:21;;;;;;;9.43;3.37;;;;;;;24.02;50.84;100429.72;5070635;28;20194;-64
2022/08/29 03:21:47;;;;;;;8.50;3.37;;;;;;;23.98;50.79;100434.66;5069272;28;20610;-63
2022/08/29 03:24:12;;;;;;;11.10;3.83;;;;;;;24.01;50.74;100427.22;5071142;28;20433;-63
2022/08/29 03:26:38;;;;;;;9.20;3.40;;;;;;;24.00;51.08;100429.31;5072673;28;20622;-63
2022/08/29 03:29:03;;;;;;;7.97;3.30;;;;;;;24.02;50.69;100423.09;5072579;28;20179;-63
2022/08/29 03:31:29;;;;;;;6.87;3.00;;;;;;;24.01;50.41;100413.66;5070848;28;20185;-63
2022/08/29 03:33:55;;;;;;;8.47;3.27;;;;;;;24.03;50.62;100416.91;5072072;28;20187;-64
2022/08/29 03:36:20;;;;;;;9.60;3.83;;;;;;;24.05;50.61;100408.69;5073420;28;20684;-64
2022/08/29 03:38:46;;;;;;;8.47;3.27;;;;;;;24.00;50.73;100416.94;5073101;28;20436;-64
2022/08/29 03:41:19;;;;;;;8.83;2.70;;;;;;;23.99;50.26;100415.28;5072739;28;20228;-64
2022/08/29 03:43:44;;;;;;;8.97;3.10;;;;;;;24.00;50.71;100420.66;5074154;28;20417;-64
2022/08/29 03:46:10;;;;;;;7.07;3.00;;;;;;;24.00;50.64;100416.94;5073786;28;20487;-63
2022/08/29 03:48:35;;;;;;;6.87;3.00;;;;;;;24.00;50.64;100420.66;5073833;28;20579;-64
2022/08/29 03:51:01;;;;;;;8.83;3.10;;;;;;;23.99;50.57;100413.22;5073634;28;20660;-64
2022/08/29 03:53:27;;;;;;;7.17;3.03;;;;;;;23.99;50.74;100418.19;5073267;28;20207;-64
2022/08/29 03:55:52;;;;;;;6.03;2.73;;;;;;;23.97;50.55;100404.16;5072714;28;20674;-64
2022/08/29 03:58:18;;;;;;;9.10;3.33;;;;;;;23.98;50.75;100414.47;5071376;28;20615;-64
2022/08/29 04:00:45;;;;;;;11.10;3.13;;;;;;;23.99;50.70;100421.88;5072947;28;20178;-64
2022/08/29 04:03:11;;;;;;;8.13;3.30;;;;;;;23.98;50.71;100416.53;5061656;28;20639;-63
2022/08/29 04:05:36;;;;;;;6.87;3.30;;;;;;;23.97;50.65;100421.47;5065924;28;20436;-63
2022/08/29 04:08:02;;;;;;;6.83;3.20;;;;;;;23.97;50.30;100414.88;5072598;28;20179;-63
2022/08/29 04:10:32;;;;;;;6.60;2.43;;;;;;;23.96;50.50;100416.94;5055349;28;20217;-64
2022/08/29 04:12:58;;;;;;;6.30;2.50;;;;;;;23.96;50.73;100419.84;5073522;28;20710;-64
2022/08/29 04:15:24;;;;;;;5.83;2.60;;;;;;;23.97;50.46;100421.47;5072117;28;20506;-64
2022/08/29 04:17:52;;;;;;;5.00;2.67;;;;;;;23.96;50.14;100419.84;5073026;28;20183;-64
2022/08/29 04:20:18;;;;;;;9.03;2.90;;;;;;;23.94;50.12;100422.28;5072721;28;20448;-63
2022/08/29 04:22:44;;;;;;;7.43;2.87;;;;;;;23.92;50.51;100416.13;5073382;28;21270;-64
2022/08/29 04:25:10;;;;;;;7.60;3.00;;;;;;;23.90;50.59;100409.97;5072887;28;20179;-63
2022/08/29 04:27:36;;;;;;;5.40;2.60;;;;;;;23.89;50.52;100419.03;5059105;28;20188;-64
2022/08/29 04:30:07;;;;;;;5.53;2.50;;;;;;;23.87;50.19;100419.41;5052684;28;20430;-63
2022/08/29 04:32:34;;;;;;;4.67;2.33;;;;;;;23.90;50.25;100423.56;5071558;28;20186;-64
2022/08/29 04:34:59;;;;;;;6.37;2.40;;;;;;;23.89;50.66;100424.78;5071565;28;20906;-64
2022/08/29 04:37:25;;;;;;;6.43;2.57;;;;;;;23.88;50.26;100432.56;5071355;28;20421;-64
2022/08/29 04:39:50;;;;;;;6.33;2.73;;;;;;;23.87;50.11;100425.16;5072885;28;20186;-64
2022/08/29 04:42:17;;;;;;;7.67;2.77;;;;;;;23.83;49.94;100424.34;5072833;28;20649;-63
2022/08/29 04:44:43;;;;;;;5.73;2.50;;;;;;;23.81;50.08;100435.47;5072561;28;20181;-64
2022/08/29 04:47:08;;;;;;;6.40;2.80;;;;;;;23.74;50.66;100441.22;5072261;28;20524;-63
2022/08/29 04:49:34;;;;;;;8.17;3.30;;;;;;;23.77;50.17;100439.59;5071762;28;20417;-63
2022/08/29 04:51:59;;;;;;;8.70;2.80;;;;;;;23.80;50.17;100451.13;5071520;28;20175;-64
2022/08/29 04:54:25;;;;;;;8.33;2.80;;;;;;;23.78;50.14;100453.59;5071520;28;20183;-63
2022/08/29 04:56:50;;;;;;;4.80;2.23;;;;;;;23.82;49.62;100460.19;5071594;28;20202;-64
2022/08/29 04:59:16;;;;;;;5.77;2.40;;;;;;;23.80;49.92;100465.56;5071922;28;20171;-63
2022/08/29 05:01:41;;;;;;;9.00;2.70;;;;;;;23.72;50.40;100463.06;5072235;28;20182;-63
2022/08/29 05:04:06;;;;;;;7.30;2.77;;;;;;;23.60;49.74;100455.69;5018088;28;20199;-64
2022/08/29 05:06:32;;;;;;;6.70;3.03;;;;;;;23.68;50.16;100451.53;5052050;28;20176;-64
2022/08/29 05:08:58;;;;;;;5.90;2.47;;;;;;;23.61;50.02;100454.44;5051067;28;20179;-65
2022/08/29 05:11:23;;;;;;;6.30;2.50;;;;;;;23.43;50.24;100461.44;5050888;28;20222;-64
2022/08/29 05:13:50;;;;;;;10.90;3.17;;;;;;;23.40;50.35;100465.13;5052236;28;20179;-64
2022/08/29 05:16:16;;;;;;;7.63;2.73;;;;;;;23.36;50.01;100465.13;5052114;28;20207;-65
2022/08/29 05:18:43;;;;;;;8.43;2.87;;;;;;;23.14;49.39;100474.91;5052003;28;20426;-65
2022/08/29 05:21:09;;;;;;;4.60;2.60;;;;;;;23.21;50.68;100469.22;5052090;28;20221;-64
2022/08/29 05:23:34;;;;;;;9.07;2.90;;;;;;;23.11;50.04;100474.91;5052091;28;20441;-64
2022/08/29 05:26:01;;;;;;;6.20;2.70;;;;;;;23.20;50.39;100466.75;5051802;28;20410;-64
2022/08/29 05:28:27;;;;;;;7.13;2.90;;;;;;;23.46;49.67;100472.97;5052178;28;20210;-64
2022/08/29 05:30:53;;;;;;;7.30;2.80;;;;;;;23.57;49.50;100473.78;5050542;28;20418;-65
2022/08/29 05:33:18;;;;;;;5.40;2.30;;;;;;;23.46;49.74;100467.19;5056984;28;20437;-64
2022/08/29 05:35:44;;;;;;;9.43;3.13;;;;;;;23.49;49.71;100465.56;5071311;28;20198;-65
2022/08/29 05:38:09;;;;;;;5.97;3.20;;;;;;;23.59;49.56;100465.53;5071549;28;20695;-64
2022/08/29 05:40:37;;;;;;;6.73;3.10;;;;;;;23.54;49.80;100465.16;5071284;28;20177;-62
2022/08/29 05:43:03;;;;;;;7.60;3.10;;;;;;;23.37;49.71;100468.81;5068750;28;20607;-64
2022/08/29 05:45:29;;;;;;;6.57;3.00;;;;;;;23.54;49.74;100473.78;5071267;28;20441;-64
2022/08/29 05:47:55;;;;;;;8.23;2.80;;;;;;;23.61;49.62;100476.66;5070545;28;20428;-65
2022/08/29 05:50:20;;;;;;;6.63;2.77;;;;;;;23.56;50.04;100480.78;5069825;28;20769;-64
2022/08/29 05:52:46;;;;;;;10.93;2.77;;;;;;;23.40;49.96;100477.50;5067648;28;20438;-64
2022/08/29 05:55:11;;;;;;;6.40;2.70;;;;;;;23.40;50.11;100483.25;5070879;28;20190;-63
2022/08/29 05:57:37;;;;;;;7.07;2.80;;;;;;;23.32;49.81;100481.59;5071001;28;20178;-64
2022/08/29 06:00:03;;;;;;;7.67;2.60;;;;;;;23.36;49.95;100487.34;5071267;28;20183;-64
2022/08/29 06:02:29;;;;;;;9.37;2.83;;;;;;;23.30;50.32;100486.94;5063473;28;20196;-64
2022/08/29 06:04:54;;;;;;;7.23;2.57;;;;;;;22.42;52.13;100482.84;5062973;28;20417;-64
2022/08/29 06:07:20;;;;;;;7.10;2.93;;;;;;;23.18;51.89;100492.25;5069133;28;21068;-63
2022/08/29 06:09:45;;;;;;;8.20;2.70;;;;;;;23.60;52.48;100492.31;5069192;28;20178;-64
2022/08/29 06:12:12;;;;;;;13.90;3.67;;;;;;;23.75;52.70;100494.81;5068490;28;20238;-65
2022/08/29 06:14:38;;;;;;;8.80;3.20;;;;;;;23.65;53.57;100498.50;5067260;28;20518;-64
2022/08/29 06:17:05;;;;;;;11.27;3.37;;;;;;;23.55;52.16;100504.25;5068837;28;20438;-65
2022/08/29 06:19:33;;;;;;;6.57;3.03;;;;;;;23.57;52.40;100502.63;5068271;28;20562;-65
2022/08/29 06:22:02;;;;;;;6.80;2.80;;;;;;;23.16;52.55;100504.16;5068932;28;20189;-64
2022/08/29 06:24:30;;;;;;;6.60;2.87;;;;;;;22.95;52.62;100506.97;5068165;28;20448;-64
2022/08/29 06:26:56;;;;;;;10.30;3.07;;;;;;;22.98;53.17;100520.53;5071434;28;20437;-64
2022/08/29 06:29:21;;;;;;;9.17;2.97;;;;;;;23.12;54.30;100517.72;5079753;28;20485;-64
2022/08/29 06:31:46;;;;;;;9.87;3.20;;;;;;;22.60;53.64;100524.09;5082583;28;20569;-64
2022/08/29 06:34:12;;;;;;;10.60;3.27;;;;;;;22.36;53.89;100524.75;5081090;28;20183;-64
2022/08/29 06:36:37;;;;;;;8.50;3.30;;;;;;;22.76;53.85;100523.75;5069598;28;20214;-64
2022/08/29 06:39:05;;;;;;;8.13;3.30;;;;;;;22.76;53.03;100521.69;5067625;28;20182;-64
2022/08/29 06:41:31;;;;;;;10.63;2.80;;;;;;;22.54;53.87;100527.75;5069041;28;20183;-64
2022/08/29 06:43:56;;;;;;;5.43;2.37;;;;;;;22.68;53.73;100519.19;5089432;28;20416;-64
2022/08/29 06:46:24;;;;;;;7.67;3.13;;;;;;;22.86;53.04;100531.59;5080206;28;20185;-64
2022/08/29 06:48:49;;;;;;;8.77;2.87;;;;;;;22.76;53.03;100529.50;5069622;28;20191;-66
2022/08/29 06:51:15;;;;;;;8.00;2.83;;;;;;;22.62;51.79;100533.13;5068657;28;20487;-64
2022/08/29 06:53:40;;;;;;;6.27;2.73;;;;;;;22.62;52.42;100549.59;5068514;28;20205;-64
2022/08/29 06:56:06;;;;;;;6.27;2.47;;;;;;;22.46;53.69;100551.94;5055161;28;20218;-65
2022/08/29 06:58:32;;;;;;;11.80;3.80;;;;;;;22.49;52.88;100540.50;5055546;28;20187;-64
2022/08/29 07:01:13;;;;;;;13.07;3.17;;;;;;;22.58;53.56;100545.88;5072719;28;20183;-64
2022/08/29 07:03:40;;;;;;;6.30;2.90;;;;;;;22.47;53.50;100536.34;5059271;28;20456;-64
2022/08/29 07:06:06;;;;;;;8.53;3.23;;;;;;;22.77;53.56;100534.84;5078752;28;20440;-64
2022/08/29 07:08:31;;;;;;;8.50;3.77;;;;;;;22.56;53.56;100543.38;5091944;28;21254;-64
2022/08/29 07:10:57;;;;;;;13.13;3.43;;;;;;;22.87;52.92;100544.78;5091639;28;20416;-64
2022/08/29 07:13:22;;;;;;;8.50;3.13;;;;;;;22.73;53.92;100536.88;5080889;28;20227;-64
2022/08/29 07:15:47;;;;;;;11.33;2.77;;;;;;;22.92;53.27;100538.66;5052675;28;20291;-64
2022/08/29 07:18:13;;;;;;;10.90;3.63;;;;;;;22.92;52.87;100536.56;5065227;28;20171;-63
2022/08/29 07:20:39;;;;;;;6.70;2.80;;;;;;;22.77;53.52;100540.63;5092071;28;20613;-63
2022/08/29 07:23:05;;;;;;;9.07;2.87;;;;;;;23.04;52.66;100544.03;5092143;28;20556;-64
2022/08/29 07:25:30;;;;;;;9.50;3.70;;;;;;;23.02;53.26;100547.31;5060537;28;20198;-64
2022/08/29 07:27:56;;;;;;;10.80;2.97;;;;;;;23.12;52.63;100539.94;5047879;28;20429;-64
2022/08/29 07:30:21;;;;;;;8.67;2.70;;;;;;;23.15;52.65;100542.00;5071178;28;20206;-64
2022/08/29 07:32:47;;;;;;;10.60;3.70;;;;;;;23.04;52.87;100539.09;5070971;28;20357;-64
2022/08/29 07:35:12;;;;;;;7.37;2.90;;;;;;;22.98;52.44;100540.72;5070890;28;20206;-63
2022/08/29 07:37:38;;;;;;;10.17;2.90;;;;;;;22.92;52.63;100542.34;5075565;28;20181;-63
2022/08/29 07:40:05;;;;;;;8.30;2.97;;;;;;;22.94;53.60;100545.66;5070179;28;20193;-63
2022/08/29 07:42:32;;;;;;;9.90;3.50;;;;;;;23.27;52.42;100544.53;5078184;28;20186;-63
2022/08/29 07:44:58;;;;;;;12.33;3.70;;;;;;;23.24;52.23;100542.47;5084367;28;20484;-63
2022/08/29 07:47:25;;;;;;;7.27;3.33;;;;;;;23.19;52.25;100540.00;5084755;28;20437;-64
2022/08/29 07:49:52;;;;;;;9.33;3.33;;;;;;;23.15;52.48;100542.84;5089452;28;20649;-63
2022/08/29 07:52:18;;;;;;;8.70;3.80;;;;;;;22.96;52.09;100540.31;5085181;28;20436;-63
2022/08/29 07:54:43;;;;;;;11.30;3.50;;;;;;;23.38;52.95;100537.56;5073532;28;20425;-63
2022/08/29 07:57:09;;;;;;;8.10;3.60;;;;;;;23.27;52.52;100530.97;5071209;28;20580;-63
2022/08/29 07:59:34;;;;;;;6.97;3.43;;;;;;;23.50;52.77;100534.31;5077942;28;20179;-63
2022/08/29 08:01:59;;;;;;;8.83;3.60;;;;;;;23.59;52.19;100545.44;5066846;28;20563;-63
2022/08/29 08:04:25;;;;;;;7.73;4.10;;;;;;;23.47;52.49;100542.94;5070591;28;20175;-62
2022/08/29 08:06:50;;;;;;;8.80;2.90;;;;;;;23.55;52.42;100550.38;5073033;28;20186;-62
2022/08/29 08:09:16;;;;;;;10.90;4.13;;;;;;;23.42;52.35;100544.16;5072067;28;20207;-63
2022/08/29 08:11:41;;;;;;;10.67;3.10;;;;;;;23.51;52.32;100547.50;5071850;28;20237;-63
2022/08/29 08:14:07;;;;;;;10.20;3.77;;;;;;;23.45;52.58;100552.00;5070172;28;20179;-63
2022/08/29 08:16:33;;;;;;;8.23;3.37;;;;;;;23.36;52.37;100553.63;5071759;28;20307;-62
2022/08/29 08:18:58;;;;;;;10.47;3.53;;;;;;;23.30;52.52;100558.13;5080654;28;20186;-63
2022/08/29 08:21:24;;;;;;;13.00;3.90;;;;;;;23.31;52.33;100548.25;5090508;28;20170;-62
2022/08/29 08:23:51;;;;;;;8.30;3.73;;;;;;;23.48;52.41;100556.13;5079046;28;20270;-62
2022/08/29 08:26:16;;;;;;;7.70;3.50;;;;;;;23.58;52.37;100559.03;5086973;28;20187;-63
2022/08/29 08:28:42;;;;;;;8.60;3.80;;;;;;;23.45;52.11;100554.91;5089558;28;20914;-62
2022/08/29 08:31:08;;;;;;;15.50;4.00;;;;;;;23.57;53.54;100557.38;5073375;28;20192;-63
2022/08/29 08:33:37;;;;;;;8.10;3.90;;;;;;;23.66;52.70;100554.94;5079096;28;20935;-62
2022/08/29 08:36:04;;;;;;;15.67;3.60;;;;;;;23.65;52.75;100558.22;5076245;28;20468;-63
2022/08/29 08:38:30;;;;;;;7.30;3.70;;;;;;;23.63;51.95;100560.69;5091620;28;20477;-63
2022/08/29 08:41:16;;;;;;;8.10;4.07;;;;;;;23.69;52.77;100565.63;5086341;28;20422;-63
2022/08/29 08:43:53;;;;;;;10.13;4.70;;;;;;;23.69;52.64;100561.94;5071249;28;20236;-63
2022/08/29 08:46:34;;;;;;;6.77;3.07;;;;;;;23.62;52.74;100564.78;5072000;28;20841;-63
2022/08/29 08:49:00;;;;;;;13.27;3.93;;;;;;;23.57;53.25;100562.31;5072670;28;20421;-63
2022/08/29 08:51:29;;;;;;;7.40;3.70;;;;;;;23.58;53.19;100567.66;5072589;28;20768;-63
2022/08/29 08:53:56;;;;;;;10.67;3.57;;;;;;;23.66;53.17;100563.56;5070950;28;20285;-63
2022/08/29 08:56:31;;;;;;;11.00;3.60;;;;;;;23.69;52.75;100559.06;5071079;28;20461;-62
2022/08/29 08:59:12;;;;;;;8.90;3.60;;;;;;;23.73;52.69;100566.47;5053775;28;20411;-63
2022/08/29 09:01:42;;;;;;;9.10;3.57;;;;;;;23.76;53.06;100559.88;5070871;28;20433;-63
2022/08/29 09:04:34;;;;;;;11.93;3.60;;;;;;;23.76;52.84;100559.03;5070543;28;20429;-62
2022/08/29 09:07:09;;;;;;;12.40;3.70;;;;;;;23.79;53.35;100559.03;5070627;28;20430;-62
2022/08/29 09:09:42;;;;;;;11.30;4.93;;;;;;;23.83;52.64;100548.34;5070982;28;20927;-63
2022/08/29 09:12:35;;;;;;;6.97;3.57;;;;;;;23.82;52.75;100546.69;5071294;28;20469;-64
2022/08/29 09:15:09;;;;;;;9.27;3.60;;;;;;;23.82;52.84;100552.47;5071825;28;20484;-63
2022/08/29 09:17:41;;;;;;;10.37;3.57;;;;;;;23.84;52.76;100552.88;5070378;28;20474;-64
2022/08/29 09:20:09;;;;;;;12.43;3.30;;;;;;;23.88;52.48;100545.03;5071904;28;20449;-63
2022/08/29 09:22:35;;;;;;;8.07;3.60;;;;;;;23.86;52.79;100553.31;5071532;28;20923;-63
2022/08/29 09:25:05;;;;;;;6.60;3.57;;;;;;;23.85;52.58;100551.66;5071792;28;20459;-63
2022/08/29 09:27:33;;;;;;;10.67;3.87;;;;;;;23.91;52.76;100554.97;5053724;28;20445;-63
2022/08/29 09:30:05;;;;;;;7.53;3.03;;;;;;;23.90;52.71;100553.31;5071356;28;20451;-62
2022/08/29 09:32:31;;;;;;;8.67;4.00;;;;;;;23.88;52.93;100556.59;5070758;28;20433;-63
2022/08/29 09:34:56;;;;;;;5.87;3.40;;;;;;;23.90;53.14;100550.44;5069999;28;20460;-63
2022/08/29 09:37:25;;;;;;;10.60;4.30;;;;;;;23.85;53.24;100551.66;5064775;28;20179;-63
2022/08/29 09:39:57;;;;;;;12.57;3.93;;;;;;;23.89;52.96;100546.72;5050002;28;20628;-63
2022/08/29 09:42:23;;;;;;;13.87;4.10;;;;;;;23.93;52.76;100553.31;5049501;28;20437;-63
2022/08/29 09:44:56;;;;;;;11.10;3.67;;;;;;;23.96;52.81;100546.75;5048162;28;20434;-63
2022/08/29 09:47:26;;;;;;;12.50;4.30;;;;;;;23.96;53.20;100543.84;5048882;28;20182;-63
2022/08/29 09:50:11;;;;;;;10.63;4.03;;;;;;;23.99;52.97;100533.56;5051213;28;20449;-63
2022/08/29 09:52:39;;;;;;;7.37;3.70;;;;;;;23.96;52.90;100528.59;5050259;28;20547;-63
2022/08/29 09:55:22;;;;;;;8.27;3.77;;;;;;;23.96;53.36;100529.44;5069475;28;21008;-63
2022/08/29 09:58:12;;;;;;;9.00;3.43;;;;;;;24.03;53.08;100540.16;5053520;28;20472;-63
2022/08/29 10:00:39;;;;;;;7.33;3.67;;;;;;;24.04;53.17;100536.84;5050486;28;20440;-63
2022/08/29 10:03:17;;;;;;;7.40;3.53;;;;;;;24.03;52.76;100522.84;5069216;28;20425;-64
2022/08/29 10:05:50;;;;;;;9.73;3.83;;;;;;;24.10;53.30;100528.59;5069594;28;20424;-63
2022/08/29 10:08:30;;;;;;;7.50;3.27;;;;;;;24.07;53.50;100529.41;5068940;28;20458;-63
2022/08/29 10:11:00;;;;;;;8.70;4.10;;;;;;;24.12;53.39;100531.88;5049745;28;20421;-63
2022/08/29 10:13:42;;;;;;;10.77;4.30;;;;;;;24.15;53.38;100522.41;5050849;28;20461;-63
2022/08/29 10:16:31;;;;;;;13.60;3.63;;;;;;;24.20;53.38;100522.84;5033465;28;20468;-63
2022/08/29 10:19:24;;;;;;;12.23;3.90;;;;;;;24.20;53.33;100528.59;5049656;28;20909;-63
2022/08/29 10:21:58;;;;;;;12.17;3.80;;;;;;;24.18;53.25;100530.25;5047897;28;20495;-63
2022/08/29 10:24:28;;;;;;;8.93;3.80;;;;;;;24.20;53.58;100528.59;5054314;28;20788;-63
2022/08/29 10:27:02;;;;;;;9.10;3.80;;;;;;;24.22;53.35;100523.22;5069534;28;20410;-63
2022/08/29 10:30:03;;;;;;;15.53;4.40;;;;;;;24.25;53.23;100525.28;5069581;28;20413;-63
2022/08/29 10:32:58;;;;;;;10.27;3.50;;;;;;;24.28;53.57;100535.19;5068862;28;20956;-63
2022/08/29 10:35:29;;;;;;;11.87;4.10;;;;;;;24.28;53.57;100523.66;5068899;28;20468;-64
2022/08/29 10:38:16;;;;;;;9.33;3.93;;;;;;;24.30;53.61;100519.09;5068975;28;20417;-62
2022/08/29 10:41:03;;;;;;;14.07;3.60;;;;;;;24.30;53.66;100515.38;5070294;28;20555;-62
2022/08/29 10:43:56;;;;;;;8.57;3.80;;;;;;;24.34;53.62;100517.00;5069075;28;20425;-63
2022/08/29 10:46:51;;;;;;;7.43;4.20;;;;;;;24.32;53.34;100513.72;5069496;28;20420;-63
2022/08/29 10:49:43;;;;;;;8.43;4.57;;;;;;;24.38;53.78;100505.47;5069152;28;20924;-63
2022/08/29 10:52:34;;;;;;;9.63;4.40;;;;;;;24.38;53.55;100509.19;5069348;28;20417;-62
2022/08/29 10:55:22;;;;;;;12.33;4.97;;;;;;;24.42;53.72;100509.16;5047751;28;20466;-63
2022/08/29 10:57:57;;;;;;;8.17;3.90;;;;;;;24.48;53.80;100510.41;5048511;28;20449;-63
2022/08/29 11:00:26;;;;;;;8.43;3.73;;;;;;;24.47;54.39;100500.91;5048967;28;20797;-63
2022/08/29 11:03:04;;;;;;;13.30;4.37;;;;;;;24.50;53.88;100496.38;5037516;28;20430;-63
2022/08/29 11:05:32;;;;;;;12.90;5.30;;;;;;;24.50;53.82;100500.09;5049235;28;20441;-63
2022/08/29 11:08:06;;;;;;;7.30;4.37;;;;;;;24.53;53.80;100490.56;5049159;28;20838;-63
2022/08/29 11:10:39;;;;;;;18.80;4.80;;;;;;;24.54;53.85;100491.41;5049696;28;20414;-63
2022/08/29 11:13:09;;;;;;;7.00;3.90;;;;;;;24.60;53.70;100489.78;5050093;28;20474;-63
2022/08/29 11:15:43;;;;;;;9.90;4.60;;;;;;;24.64;53.67;100485.63;5048665;28;20544;-64
2022/08/29 11:18:32;;;;;;;9.73;4.10;;;;;;;24.69;54.10;100485.19;5065281;28;20908;-63
2022/08/29 11:21:48;;;;;;;15.33;5.70;;;;;;;24.67;53.60;100479.00;5061055;28;20430;-63
2022/08/29 11:24:15;;;;;;;9.10;4.50;;;;;;;24.71;53.85;100470.34;5015013;28;20994;-63
2022/08/29 11:26:44;;;;;;;9.40;3.93;;;;;;;24.70;53.92;100466.63;5063910;28;20494;-62
2022/08/29 11:29:46;;;;;;;10.17;4.77;;;;;;;24.77;54.04;100481.03;5049362;28;20418;-63
2022/08/29 11:32:36;;;;;;;9.27;4.13;;;;;;;24.80;53.63;100471.53;5053259;28;20554;-63
2022/08/29 11:35:22;;;;;;;10.20;4.33;;;;;;;24.83;53.75;100473.56;5069424;28;20462;-63